Impacts METAR Board
IDs:

KMCO - Orlando Intl, FL, US

Updated at: 1100 UTC 23 May 2018
Potential Impact None Slight Moderate High
Time 22/23Z 23/00Z 23/01Z 23/02Z 23/03Z 23/04Z 23/05Z 23/06Z 23/07Z 23/08Z 23/09Z 23/10Z 23/11Z
Temp77 76 75 74 73 72 71 70 70 70 70 69 69
Dewpt71 70 70 67 67 68 68 68 68 69 69 69 69
Altim30.07 30.08 30.09 30.09 30.10 30.10 30.10 30.09 30.08 30.07 30.08 30.09 30.11
VIS10 10 10 10 10 10 10 10 10 10 10 10 9
CIG140 140 140 140 -- -- -- -- -- -- -- -- --
CoverBKNBKNBKNBKNSCTSCTSCTFEWFEWCLRCLRFEWFEW
FltCatVFRVFRVFRVFRVFRVFRVFRVFRVFRVFRVFRVFRVFR
WX--------------------------
WDir13013013012012011090009080080
WSpd6 6 6 5 5 4 3 0 0 3 3 0 3
WGst-- -- -- -- -- -- -- -- -- -- -- -- --
Raw hourly METARs
KMCO 222253Z 13006KT 10SM SCT021 SCT075 BKN140 BKN250 25/22 A3007 RMK AO2 SLP181 T02500217 $
KMCO 222353Z 13006KT 10SM FEW045 SCT085 BKN140 BKN250 24/21 A3008 RMK AO2 SLP184 60000 T02440211 10278 20228 53006 $
KMCO 230053Z 13006KT 10SM SCT085 BKN140 BKN250 24/21 A3009 RMK AO2 SLP186 T02390211 $
KMCO 230153Z 12005KT 10SM FEW085 BKN140 BKN250 23/19 A3009 RMK AO2 SLP189 T02330194 $
KMCO 230253Z 12005KT 10SM FEW030 SCT085 SCT140 23/19 A3010 RMK AO2 SLP192 T02280194 53008 $
KMCO 230353Z 11004KT 10SM FEW080 SCT140 22/20 A3010 RMK AO2 SLP192 T02220200 $
KMCO 230453Z 09003KT 10SM FEW030 FEW140 SCT250 22/20 A3010 RMK AO2 SLP191 T02170200 402780217 $
KMCO 230553Z 00000KT 10SM FEW030 21/20 A3009 RMK AO2 SLP188 T02110200 10244 20211 58005 $
KMCO 230653Z 00000KT 10SM FEW030 21/20 A3008 RMK AO2 SLP184 T02110200 $
KMCO 230753Z 09003KT 10SM CLR 21/21 A3007 RMK AO2 SLP182 T02110206 $
KMCO 230853Z 08003KT 10SM CLR 21/21 A3008 RMK AO2 SLP184 T02110206 55003 $
KMCO 230953Z 00000KT 10SM FEW020 FEW100 21/21 A3009 RMK AO2 SLP186 T02060206 $
KMCO 231053Z 08003KT 9SM FEW100 21/21 A3011 RMK AO2 SLP193 T02060206 $



Page loaded:  11:04 UTC  |   04:04 AM Pacific  |   05:04 AM Mountain  |   06:04 AM Central  |   07:04 AM Eastern

 

ADVISORIES

FORECASTS

FORECASTS

OBSERVATIONS

USER TOOLS

ABOUT US